Lake Levels
Share |
Lake Levels
Lakes Rivers Marinas Marinas Houses Events Maps
Search 1,636 Lakes:
Lake Store

Lake Levels

LakeLevels.info is a national information and alert service for lake water levels in the United States. With a FREE member account you can receive water level alerts by email when the water level reaches your desired alert level.


We currently offer Lake Level information and alerts for 72 lakes and serve 8,814 members with 21,982 alerts.


Sign-up for a Lake Level Alert




Filter By State:
Lake Name Current
Level
Full Pool +/-
Full Pool
Reading
Date - Time
Amistad (TX) 1,075.17 1,117.00 -41.83 7/22/2014  7:15:00 PM
Amon Carter (TX) 913.52 920.00 -6.48 7/22/2014  6:00:00 PM
Aquilla (TX) 537.79 537.50 0.29 7/22/2014  8:30:00 PM
Athens (TX) 439.72 440.00 -0.28 7/22/2014  11:30:00 PM
Austin (TX) 492.04 492.80 -0.76 7/22/2014  10:05:00 AM
Bardwell (TX) 420.53 421.00 -0.47 7/22/2014  5:30:00 PM
Belton (TX) 585.56 594.00 -8.44 7/22/2014  11:00:00 PM
Benbrook (TX) 690.00 694.00 -4.00 7/22/2014  6:00:00 PM
Bob Sandlin (TX) 336.40 337.50 -1.10 7/22/2014  10:17:00 AM
Bonham (TX) 562.27 565.00 -2.73 7/22/2014  7:00:00 PM
Bridgeport (TX) 813.88 836.00 -22.12 7/22/2014  6:00:00 PM
Brownwood (TX) 1,412.97 1,425.00 -12.03 7/22/2014  11:30:00 PM
Buchanan (TX) 990.08 1,020.50 -30.42 7/22/2014  10:05:00 AM
Caddo (LA TX) 168.90 168.50 0.40 7/22/2014  7:00:00 AM
Canyon (TX) 900.06 909.00 -8.94 7/22/2014  3:15:00 PM
Cedar Creek (TX) 318.35 ??? 7/22/2014  10:45:00 PM
Champion Creek (TX) 2,036.79 2,083.00 -46.21 7/22/2014  10:17:00 AM
Choke Canyon (TX) 195.04 220.50 -25.46 7/22/2014  7:30:00 AM
Coleto Creek (TX) 96.27 98.28 -2.01 7/22/2014  7:00:00 PM
Colorado City (TX) 2,048.86 2,070.20 -21.34 7/22/2014  10:17:00 AM
Conroe (TX) 201.33 201.00 0.33 7/22/2014  10:45:00 PM
Corpus Christi (TX) 88.34 94.00 -5.66 7/22/2014  8:59:00 AM
Eagle Mountain (TX) 642.42 649.00 -6.58 7/22/2014  8:45:00 PM
Falcon (TX) 271.68 301.20 -29.52 7/22/2014  10:05:00 AM
Fork (TX) 399.30 403.00 -3.70 7/22/2014  11:30:00 PM
Georgetown (TX) 776.18 791.00 -14.82 7/22/2014  9:00:00 PM
Granbury (TX) 688.10 693.00 -4.90 7/22/2014  10:30:00 PM
Grapevine (TX) 525.46 535.00 -9.54 7/22/2014  10:45:00 AM
Houston (TX) 42.36 41.70 0.66 7/22/2014  11:30:00 PM
Hubbard Creek (TX) 1,156.57 1,183.00 -26.43 7/22/2014  11:15:00 PM
Inks (TX) 887.16 886.90 0.26 7/22/2014  11:00:00 PM
Jacksonville (TX) 421.54 422.00 -0.46 7/22/2014  10:17:00 AM
JB Thomas (TX) 2,205.59 2,258.00 -52.41 7/22/2014  11:45:00 PM
Jim Chapman (TX) 431.83 440.00 -8.17 7/22/2014  10:17:00 AM
Joe Pool (TX) 521.35 522.00 -0.65 7/22/2014  10:00:00 PM
Lake O' the Pines (TX) 229.80 228.50 1.30 7/22/2014  10:17:00 AM
Lavon (TX) 480.27 492.00 -11.73 7/22/2014  7:00:00 PM
Lewisville (TX) 515.36 522.00 -6.64 7/22/2014  3:30:00 PM
Limestone (TX) 362.92 363.00 -0.08 7/22/2014  10:45:00 PM
Livingston (TX) 131.39 131.00 0.39 7/22/2014  10:15:00 PM
Lyndon B. Johnson (TX) 824.62 825.00 -0.38 7/22/2014  10:05:00 AM
MacKenzie (TX) 3,010.63 3,100.00 -89.37 7/22/2014  11:30:00 PM
Marble Falls (TX) 736.39 737.00 -0.61 7/22/2014  10:05:00 AM
Martin Creek (TX) 305.77 306.00 -0.23 7/22/2014  4:30:00 PM
Medina (TX) 978.88 ??? 7/22/2014  10:00:00 PM
Meredith (TX) 2,855.57 ??? 7/22/2014  10:30:00 PM
Mexia (TX) 447.90 448.30 -0.40 7/22/2014  9:15:00 PM
Mineral Wells (TX) 856.25 ??? 7/23/2014  3:30:00 AM
Moss Creek (TX) 2,332.47 2,337.00 -4.53 7/22/2014  9:45:00 PM
Mountain Creek (TX) 2.55 457.00 -454.45 7/22/2014  11:30:00 PM
Murvaul (TX) 265.16 265.50 -0.34 7/22/2014  10:17:00 AM
Nacogdoches (TX) 278.85 279.00 -0.15 7/22/2014  10:17:00 AM
Natural Dam Salt (TX) 2,447.33 2,457.00 -9.67 7/22/2014  10:17:00 AM
O.H. Ivie (TX) 1,513.17 1,551.50 -38.33 7/22/2014  11:15:00 PM
Palestine (TX) 344.74 345.00 -0.26 7/22/2014  10:17:00 AM
Pat Mayse (TX) 447.39 451.00 -3.61 7/22/2014  10:17:00 AM
Possum Kingdom (TX) 984.86 1,000.00 -15.14 7/22/2014  9:31:00 AM
Ray Hubbard (TX) 427.41 435.50 -8.09 7/22/2014  11:30:00 PM
Ray Roberts (TX) 625.09 632.50 -7.41 7/22/2014  12:15:00 AM
Red Bluff (TX) 2,815.75 2,827.13 -11.38 7/22/2014  10:17:00 AM
Richland Chambers (TX) 307.78 315.00 -7.22 7/22/2014  9:31:00 AM
Sam Rayburn (TX) 164.70 164.40 0.30 7/22/2014  11:00:00 PM
Somerville (TX) 238.14 238.00 0.14 7/22/2014  11:00:00 PM
Tawakoni (TX) 427.93 437.50 -9.57 7/22/2014  11:30:00 PM
Texana (TX) 43.41 44.00 -0.59 7/22/2014  11:00:00 PM
Texoma (TX) 611.30 617.00 -5.70 7/22/2014  11:00:00 PM
Toledo Bend (TX LA) 171.56 172.00 -0.44 7/22/2014  11:30:00 PM
Travis (TX) 628.36 681.00 -52.64 7/22/2014  10:00:00 PM
Tyler (TX) 375.09 375.50 -0.41 7/22/2014  10:17:00 AM
Whitney (TX) 525.55 533.00 -7.45 7/22/2014  8:15:00 PM
Worth (TX) 590.42 594.00 -3.58 7/22/2014  10:00:00 PM
Wright Patman (TX) 227.06 220.60 6.46 7/22/2014  10:17:00 AM


Current Daily Streamflow Conditions
High
90th percentile
75th - 89th percentile
25th - 74th percentile
10th - 24th percentile
10th percentile
Low
Not ranked

The colored dots on this map depict streamflow conditions as a percentile, which is computed from the period of record for the current day of the year. Only stations with at least 30 years of record are used. The gray circles indicate other stations that were not ranked in percentiles either because they have fewer than 30 years of record or because they report parameters other than streamflow. Some stations, for example, measure stage only.
TX Daily Streamflow Conditions



U.S. Drought Monitor